createdAt,value
2022-12-09T00:00:38.807Z,100174.62
2022-12-09T01:03:06.361Z,100132.41
2022-12-09T01:04:25.599Z,100131.41
2022-12-09T01:22:55.779Z,100132.95
2022-12-09T01:41:47.328Z,100081.45
2022-12-09T01:50:25.327Z,100068.90
2022-12-09T01:51:20.852Z,100068.90
2022-12-09T01:52:26.414Z,100070.59
2022-12-09T01:53:33.334Z,100071.37
2022-12-09T01:54:43.108Z,100072.16
2022-12-09T01:55:50.033Z,100072.16
2022-12-09T01:56:55.512Z,100059.60
2022-12-09T01:58:00.199Z,100060.34
2022-12-09T01:59:14.751Z,100059.44
2022-12-09T02:00:20.367Z,100055.86
2022-12-09T02:01:24.711Z,100057.55
2022-12-09T02:02:30.536Z,100052.28
2022-12-09T02:03:35.245Z,100058.33
2022-12-09T02:04:44.763Z,100057.42
2022-12-09T02:05:51.264Z,100065.33
2022-12-09T02:06:56.849Z,100065.33
2022-12-09T02:08:01.367Z,100073.06
2022-12-09T02:09:07.461Z,100073.06
2022-12-09T02:10:15.247Z,100071.27
2022-12-09T02:11:45.290Z,100072.12
2022-12-09T02:12:53.933Z,100065.16
2022-12-09T02:14:14.668Z,100072.90
2022-12-09T02:15:26.137Z,100067.80
2022-12-09T02:16:34.799Z,100060.73
2022-12-09T02:17:51.480Z,100052.83
2022-12-09T02:20:40.306Z,100058.95
2022-12-09T02:21:47.842Z,100043.91
2022-12-09T02:23:06.796Z,100037.70
2022-12-09T02:24:20.106Z,100043.91
2022-12-09T07:09:19.949Z,99989.80
2022-12-09T07:10:29.051Z,99985.23
2022-12-09T07:11:33.621Z,99994.76
2022-12-09T07:12:41.397Z,99988.43
2022-12-09T07:13:47.403Z,99984.77
2022-12-09T07:14:51.615Z,99984.70
2022-12-09T08:43:15.276Z,99924.53
2022-12-09T08:44:21.019Z,99922.81
2022-12-09T08:45:25.562Z,99922.63
2022-12-09T08:46:31.537Z,99925.20
2022-12-09T14:23:04.750Z,99731.33
2022-12-09T14:24:14.406Z,99724.05
2022-12-09T14:25:29.942Z,99721.33
2022-12-09T14:26:44.818Z,99728.20
2022-12-09T14:28:16.035Z,99725.37
2022-12-09T14:29:48.282Z,99725.37
2022-12-09T14:31:08.027Z,99723.48
2022-12-09T14:32:23.052Z,99727.80
2022-12-09T14:33:35.908Z,99727.80
2022-12-09T14:34:43.186Z,99724.23
2022-12-09T14:35:50.079Z,99732.05
2022-12-09T14:39:53.741Z,99724.04
2022-12-09T14:41:17.738Z,99730.80
2022-12-09T14:42:27.535Z,99721.95
2022-12-09T14:43:48.611Z,99724.59
2022-12-09T14:45:12.411Z,99724.59
2022-12-09T14:46:24.015Z,99713.06
2022-12-09T14:47:31.359Z,99713.15
2022-12-09T14:48:40.287Z,99711.38
2022-12-09T15:48:01.358Z,99724.67
2022-12-09T15:49:20.387Z,99728.20
2022-12-09T15:52:00.099Z,99716.40
2022-12-09T15:53:33.825Z,99734.80
2022-12-09T15:54:43.197Z,99725.80
2022-12-09T15:55:51.697Z,99723.92
2022-12-09T15:57:05.176Z,99715.16
2022-12-09T15:58:50.415Z,99717.51
2022-12-09T15:59:42.954Z,99709.47
2022-12-09T16:00:51.688Z,99709.47
2022-12-09T16:02:01.412Z,99714.55
2022-12-09T16:03:18.237Z,99701.25
2022-12-09T16:04:25.437Z,99706.45
2022-12-09T16:05:34.913Z,99716.05
2022-12-09T16:06:38.126Z,99709.93
2022-12-09T16:07:54.068Z,99710.77
2022-12-09T16:09:05.163Z,99708.88
2022-12-09T16:10:17.102Z,99711.61
2022-12-09T16:12:39.123Z,99711.61
2022-12-09T16:13:20.361Z,99707.17
2022-12-09T16:14:25.424Z,99712.37
2022-12-09T17:20:50.894Z,99706.67
2022-12-09T17:23:42.232Z,99718.44
2022-12-09T17:59:36.448Z,99717.04
